Weather reports worldwide

Advertisment
Puebla De D. Rodrigo, Spain (8271): temperature & dewpoint: 10.06.2019 13:00:00 - 16.06.2019 13:00:00 (CEST)Puebla De D. Rodrigo, Spain (8271): wind speed & gusts: 10.06.2019 13:00:00 - 16.06.2019 13:00:00 (CEST)Puebla De D. Rodrigo, Spain (8271): wind direction: 10.06.2019 13:00:00 - 16.06.2019 13:00:00 (CEST)Puebla De D. Rodrigo, Spain (8271): reduced air pressure: 10.06.2019 13:00:00 - 16.06.2019 13:00:00 (CEST)
Date & Time tt [°C] td [°C] ff [km/h] ff [kn] fx [km/h] fx [kn] dd ppp [hPa]
16.06.2019 13:00:00 27,3 8,3 1 1 13 7 SSW 1010,1
16.06.2019 12:00:00 26,9 9,7 0 0 1 1 N 1010,6
16.06.2019 11:00:00 23,3 8,5 0 0 0 0 ESE 1011,3
16.06.2019 10:00:00 19,7 7,4 0 0 0 0 N 1012,2
16.06.2019 09:00:00 14,3 5,3 0 0 0 0 N 1013,2
16.06.2019 08:00:00 13,2 5,1 0 0 0 0 N 1013,2
16.06.2019 07:00:00 10,1 3,2 0 0 0 0 N 1013,3
16.06.2019 06:00:00 10,8 3,0 0 0 0 0 N 1012,9
16.06.2019 05:00:00 11,8 3,0 0 0 0 0 N 1012,9
16.06.2019 04:00:00 12,2 2,7 0 0 0 0 N 1013,0
16.06.2019 03:00:00 14,6 3,4 0 0 0 0 N 1013,0
16.06.2019 02:00:00 15,4 2,9 0 0 0 0 N 1013,5
16.06.2019 01:00:00 16,5 3,2 0 0 0 0 N 1013,2
16.06.2019 00:00:00 18,6 4,3 0 0 5 3 WSW 1012,9
15.06.2019 23:00:00 20,1 5,0 0 0 7 4 N 1012,4
15.06.2019 22:00:00 21,1 5,0 3 2 14 7 SW 1011,7
15.06.2019 21:00:00 22,9 5,8 4 2 10 6 SW 1011,1
15.06.2019 20:00:00 25,5 7,1 0 0 11 6 WSW 1010,2
15.06.2019 19:00:00 26,6 8,1 1 0 20 11 W 1009,9
15.06.2019 18:00:00 26,0 8,0 3 2 17 9 WNW 1010,5
15.06.2019 17:00:00 26,0 8,5 4 2 21 11 WSW 1011,0
15.06.2019 16:00:00 26,3 9,6 4 2 19 11 W 1011,3
15.06.2019 15:00:00 24,6 8,5 4 2 15 8 N 1011,9
15.06.2019 14:00:00 23,9 9,0 0 0 16 9 NNW 1012,5
15.06.2019 13:00:00 21,4 7,6 2 1 18 10 SW 1013,3
15.06.2019 12:00:00 20,4 7,4 1 1 13 7 SW 1013,8
15.06.2019 11:00:00 19,7 8,4 0 0 5 3 SSW 1013,9
15.06.2019 10:00:00 17,7 8,5 0 0 0 0 N 1014,2
15.06.2019 09:00:00 14,8 7,8 0 0 0 0 N 1014,6
15.06.2019 08:00:00 11,8 6,2 0 0 0 0 N 1014,9
15.06.2019 07:00:00 8,8 4,5 0 0 0 0 N 1015,2
15.06.2019 06:00:00 11,1 5,6 0 0 0 0 N 1014,1
15.06.2019 05:00:00 11,2 5,3 0 0 0 0 N 1014,1
15.06.2019 04:00:00 12,4 5,8 0 0 0 0 N 1014,0
15.06.2019 03:00:00 13,4 5,8 0 0 0 0 N 1013,7
15.06.2019 02:00:00 14,0 5,6 0 0 0 0 N 1013,4
15.06.2019 01:00:00 14,9 5,5 0 0 1 1 N 1013,0
15.06.2019 00:00:00 15,7 5,3 0 0 4 2 W 1012,5
14.06.2019 23:00:00 16,3 5,3 0 0 14 7 N 1012,2
14.06.2019 22:00:00 17,3 5,6 1 1 24 13 WSW 1011,2
14.06.2019 21:00:00 18,8 5,6 3 2 29 16 W 1009,8
14.06.2019 20:00:00 20,8 6,4 4 2 33 18 W 1009,1
14.06.2019 19:00:00 22,3 7,7 9 5 32 18 W 1008,2
14.06.2019 18:00:00 23,0 7,8 9 5 32 18 WSW 1008,0
14.06.2019 17:00:00 24,3 9,0 6 3 36 19 W 1007,4
14.06.2019 16:00:00 23,1 8,0 7 4 32 18 WSW 1007,8
14.06.2019 15:00:00 23,8 9,0 8 4 34 19 W 1007,7
14.06.2019 14:00:00 24,1 9,7 10 6 43 23 SW 1007,6
14.06.2019 13:00:00 22,0 8,5 9 5 29 16 SW 1007,7
14.06.2019 12:00:00 20,6 8,5 11 6 28 15 SSW 1007,9
14.06.2019 11:00:00 20,5 8,8 6 3 19 10 SW 1007,6
14.06.2019 10:00:00 18,5 7,8 2 1 14 7 WSW 1007,9
14.06.2019 09:00:00 16,8 7,7 0 0 0 0 N 1007,9
14.06.2019 08:00:00 15,4 7,4 0 0 1 1 N 1007,5
14.06.2019 07:00:00 13,2 5,6 0 0 2 1 N 1007,6
14.06.2019 06:00:00 13,8 4,3 0 0 0 0 N 1007,0
14.06.2019 05:00:00 14,8 3,6 0 0 1 1 N 1006,4
14.06.2019 04:00:00 16,0 3,4 0 0 0 0 N 1006,1
14.06.2019 03:00:00 17,2 4,1 0 0 1 1 WSW 1005,6
14.06.2019 02:00:00 18,1 4,3 0 0 0 0 N 1005,2
14.06.2019 01:00:00 19,9 5,5 0 0 7 4 N 1004,4
14.06.2019 00:00:00 20,8 6,4 0 0 8 5 N 1004,2
13.06.2019 23:00:00 21,9 6,5 1 0 16 9 W 1003,4
13.06.2019 22:00:00 23,1 6,8 3 2 21 11 WSW 1002,2
13.06.2019 21:00:00 25,1 7,7 4 2 22 12 W 1001,0
13.06.2019 20:00:00 27,0 8,9 5 3 22 12 WSW 999,9
13.06.2019 19:00:00 27,7 9,6 8 4 31 17 SW 999,6
13.06.2019 18:00:00 27,9 10,2 6 4 23 12 S 999,7
13.06.2019 17:00:00 28,2 8,9 8 4 28 15 S 1000,5
13.06.2019 16:00:00 28,6 9,8 5 3 29 16 WSW 1001,0
13.06.2019 15:00:00 26,8 9,7 10 5 24 13 S 1001,7
13.06.2019 14:00:00 26,9 10,2 5 3 25 14 SW 1002,3
13.06.2019 13:00:00 25,4 8,8 7 4 27 14 S 1002,9
13.06.2019 12:00:00 24,0 7,1 6 3 15 8 SSW 1004,0
13.06.2019 11:00:00 22,1 7,8 1 0 16 8 ENE 1004,3
13.06.2019 10:00:00 20,1 6,8 0 0 1 0 N 1004,8
13.06.2019 09:00:00 16,4 3,8 0 0 0 0 N 1005,7
13.06.2019 08:00:00 12,4 1,9 0 0 0 0 N 1005,8
13.06.2019 07:00:00 10,8 0,0 0 0 0 0 N 1006,0
13.06.2019 06:00:00 10,9 0,0 0 0 0 0 N 1005,3
13.06.2019 05:00:00 10,9 -0,3 0 0 0 0 N 1005,1
13.06.2019 04:00:00 12,4 0,2 0 0 0 0 N 1004,5
13.06.2019 03:00:00 13,6 0,0 0 0 0 0 N 1004,5
13.06.2019 02:00:00 15,5 0,2 0 0 0 0 N 1004,2
13.06.2019 01:00:00 16,9 0,4 0 0 0 0 N 1004,2
13.06.2019 00:00:00 19,4 1,3 0 0 6 4 W 1003,6
12.06.2019 23:00:00 20,6 2,5 0 0 6 3 N 1003,1
12.06.2019 22:00:00 21,7 2,5 0 0 9 5 SW 1002,3
12.06.2019 21:00:00 24,4 3,6 1 0 14 8 W 1001,7
12.06.2019 20:00:00 26,1 3,9 3 1 24 13 WNW 1001,3
12.06.2019 19:00:00 26,9 4,6 2 1 24 13 SW 1001,4
12.06.2019 18:00:00 27,1 4,1 4 2 31 17 WSW 1002,0
12.06.2019 17:00:00 28,4 5,3 5 3 29 16 WSW 1002,4
12.06.2019 16:00:00 27,3 5,6 4 2 26 14 WSW 1003,0
12.06.2019 15:00:00 26,5 5,5 3 2 19 10 SSW 1003,7
12.06.2019 14:00:00 25,5 5,6 2 1 18 10 SE 1004,6
12.06.2019 13:00:00 23,8 5,1 4 2 23 12 ENE 1005,5
12.06.2019 12:00:00 23,3 5,1 0 0 9 5 ENE 1006,0
12.06.2019 11:00:00 21,2 8,1 0 0 8 4 NE 1006,7
12.06.2019 10:00:00 18,3 6,8 0 0 1 1 N 1007,5
12.06.2019 09:00:00 15,0 3,8 0 0 0 0 ENE 1008,1
12.06.2019 08:00:00 12,0 1,9 0 0 0 0 N 1008,2
12.06.2019 07:00:00 9,1 -0,5 0 0 0 0 N 1008,8
12.06.2019 06:00:00 9,1 -1,0 0 0 0 0 N 1008,3
12.06.2019 05:00:00 10,9 -0,3 0 0 0 0 N 1007,9
12.06.2019 04:00:00 12,7 0,2 0 0 0 0 N 1007,8
12.06.2019 03:00:00 15,2 0,9 0 0 5 3 N 1007,5
12.06.2019 02:00:00 16,8 1,3 1 1 16 8 ENE 1007,3
12.06.2019 01:00:00 16,3 0,9 0 0 0 0 N 1007,6
12.06.2019 00:00:00 17,3 1,7 0 0 10 5 N 1007,8
11.06.2019 23:00:00 18,2 2,5 0 0 24 13 NE 1007,2
11.06.2019 22:00:00 20,3 4,3 6 4 24 13 NE 1006,1
11.06.2019 21:00:00 21,4 5,3 14 8 27 15 NE 1005,1
11.06.2019 20:00:00 22,4 7,0 8 5 32 17 NE 1004,5
11.06.2019 19:00:00 23,5 8,0 8 4 41 22 NE 1004,0
11.06.2019 18:00:00 23,3 8,1 16 9 35 19 NNE 1003,7
11.06.2019 17:00:00 22,6 8,0 17 9 35 19 NNE 1003,7
11.06.2019 16:00:00 23,0 8,3 13 7 29 16 NNE 1003,3
11.06.2019 15:00:00 - - 1 0 22 12 N -
11.06.2019 14:00:00 23,3 9,7 3 2 16 9 S 1003,6
11.06.2019 13:00:00 22,7 9,4 4 2 23 12 WSW 1004,2
11.06.2019 12:00:00 21,5 9,4 3 2 18 10 W 1004,6
11.06.2019 11:00:00 21,5 10,0 0 0 17 9 W 1004,5
11.06.2019 10:00:00 19,7 9,6 0 0 8 4 N 1005,2
11.06.2019 09:00:00 16,4 7,8 0 0 9 5 N 1005,8
11.06.2019 08:00:00 13,6 6,4 0 0 16 9 SSW 1006,4
11.06.2019 07:00:00 12,5 5,1 2 1 17 9 SW 1006,8
11.06.2019 06:00:00 13,4 5,0 2 1 12 6 SW 1006,3
11.06.2019 05:00:00 14,9 5,5 0 0 6 3 N 1006,4
11.06.2019 04:00:00 16,1 5,1 0 0 10 5 N 1006,2
11.06.2019 03:00:00 17,1 5,3 0 0 19 10 N 1006,6
11.06.2019 02:00:00 18,1 5,3 1 1 16 9 WNW 1006,8
11.06.2019 01:00:00 19,6 4,8 10 5 22 12 SW 1006,9
11.06.2019 00:00:00 20,1 3,8 0 0 10 6 W 1007,0
10.06.2019 23:00:00 20,8 4,3 6 4 15 8 WSW 1006,8
10.06.2019 22:00:00 22,4 4,5 2 1 25 13 WSW 1006,1
10.06.2019 21:00:00 24,2 5,9 6 4 26 14 WSW 1005,6
10.06.2019 20:00:00 25,9 7,4 8 4 24 13 WSW 1005,4
10.06.2019 19:00:00 26,2 8,3 7 4 24 13 WSW 1005,4
10.06.2019 18:00:00 27,2 9,6 5 3 24 13 WNW 1006,2
10.06.2019 17:00:00 26,6 9,0 7 4 26 14 WSW 1006,4
10.06.2019 16:00:00 26,3 9,6 4 2 26 14 SSW 1007,1
10.06.2019 15:00:00 25,6 9,0 2 1 20 11 WNW 1007,9
10.06.2019 14:00:00 25,6 10,6 6 4 31 17 WSW 1008,6
10.06.2019 13:00:00 24,7 9,8 2 1 18 10 NW 1009,2

tt = temperature
td = dewpoint
ff = wind speed
fx = gusts
dd = wind direction
ppp = reduced air pressure

Next stations